Time;durP1;ratioP1;P1;durP2;ratioP2;P2;SDS_P1;SDS_P2;PMS_P1;PMS_P2;Temp;Humidity;BMP_temperature;BMP_pressure;BME280_temperature;BME280_humidity;BME280_pressure;Samples;Min_cycle;Max_cycle;Signal;HPM_P1;HPM_P2
2023/01/30 00:00:24;;;;;;;39.50;29.95;;;;;;;3.69;100.00;101714.28;5242035;28;20455;-72
2023/01/30 00:02:55;;;;;;;40.80;33.07;;;;;;;3.72;100.00;101710.13;5242180;28;20071;-71
2023/01/30 00:05:27;;;;;;;38.20;30.70;;;;;;;3.84;100.00;101697.56;5242200;28;20497;-72
2023/01/30 00:07:58;;;;;;;41.00;33.70;;;;;;;3.85;100.00;101672.69;5242427;28;20477;-71
2023/01/30 00:10:29;;;;;;;35.33;27.80;;;;;;;3.87;100.00;101678.75;5224477;28;20476;-71
2023/01/30 00:13:01;;;;;;;41.23;30.37;;;;;;;3.89;100.00;101682.22;5242104;28;20033;-71
2023/01/30 00:15:32;;;;;;;36.80;30.23;;;;;;;3.90;100.00;101676.25;5241396;28;20025;-71
2023/01/30 00:18:04;;;;;;;34.70;28.17;;;;;;;3.91;100.00;101683.19;5241324;28;20064;-71
2023/01/30 00:20:35;;;;;;;40.03;29.27;;;;;;;3.96;100.00;101662.66;5242040;28;20030;-71
2023/01/30 00:23:07;;;;;;;35.50;27.80;;;;;;;3.93;100.00;101658.28;5242816;28;20037;-71
2023/01/30 00:25:38;;;;;;;37.73;28.33;;;;;;;3.95;100.00;101672.09;5241870;28;20079;-71
2023/01/30 00:28:09;;;;;;;40.53;28.97;;;;;;;3.97;100.00;101662.69;5240834;28;20029;-71
2023/01/30 00:30:41;;;;;;;37.97;28.07;;;;;;;4.04;100.00;101680.94;5241953;28;20044;-71
2023/01/30 00:33:12;;;;;;;40.47;28.67;;;;;;;4.05;100.00;101687.84;5241887;28;20060;-72
2023/01/30 00:35:44;;;;;;;35.90;26.83;;;;;;;4.05;100.00;101688.72;5242059;28;20030;-71
2023/01/30 00:38:19;;;;;;;36.08;27.58;;;;;;;4.06;100.00;101681.84;5241648;28;20029;-71
2023/01/30 00:40:50;;;;;;;33.03;27.13;;;;;;;4.07;100.00;101675.84;5241078;28;20461;-71
2023/01/30 00:47:04;;;;;;;33.33;28.13;;;;;;;4.14;100.00;101664.91;5240695;28;20029;-70
2023/01/30 00:49:20;;;;;;;36.75;28.45;;;;;;;4.12;100.00;101663.94;5241433;28;20067;-70
2023/01/30 00:51:52;;;;;;;39.00;33.80;;;;;;;4.18;100.00;101659.84;5241650;28;20026;-71
2023/01/30 00:54:23;;;;;;;35.63;26.10;;;;;;;4.23;100.00;101661.69;5242185;28;20030;-71
2023/01/30 00:56:54;;;;;;;40.80;29.17;;;;;;;4.24;100.00;101664.31;5241584;28;20444;-71
2023/01/30 00:59:27;;;;;;;37.63;29.63;;;;;;;4.26;100.00;101647.16;5241584;28;20112;-71
2023/01/30 01:01:58;;;;;;;36.53;27.13;;;;;;;4.23;100.00;101659.97;5241305;28;20041;-71
2023/01/30 01:04:29;;;;;;;44.90;28.90;;;;;;;4.27;100.00;101653.19;5241372;28;20032;-71
2023/01/30 01:07:01;;;;;;;40.60;32.10;;;;;;;4.27;100.00;101658.38;5241209;28;20026;-72
2023/01/30 01:09:32;;;;;;;33.80;28.83;;;;;;;4.26;100.00;101657.47;5241385;28;20354;-71
2023/01/30 01:12:04;;;;;;;39.87;30.00;;;;;;;4.27;100.00;101650.63;5241594;28;20028;-71
2023/01/30 01:14:36;;;;;;;35.08;28.65;;;;;;;4.27;100.00;101656.66;5241309;28;20065;-72
2023/01/30 01:17:07;;;;;;;34.90;30.37;;;;;;;4.29;100.00;101643.78;5241229;28;20487;-71
2023/01/30 01:19:38;;;;;;;32.57;28.03;;;;;;;4.30;100.00;101642.94;5241269;28;20038;-71
2023/01/30 01:22:10;;;;;;;37.30;28.37;;;;;;;4.32;100.00;101646.44;5241767;28;20112;-71
2023/01/30 01:24:41;;;;;;;35.63;30.20;;;;;;;4.32;100.00;101642.16;5240049;28;20040;-71
2023/01/30 01:27:12;;;;;;;34.80;29.57;;;;;;;4.34;100.00;101634.44;5244010;28;20025;-71
2023/01/30 01:29:44;;;;;;;32.37;26.70;;;;;;;4.41;100.00;101640.63;5245164;28;20033;-72
2023/01/30 01:32:15;;;;;;;37.77;30.30;;;;;;;4.43;100.00;101629.53;5243484;28;20511;-71
2023/01/30 01:34:46;;;;;;;34.13;29.17;;;;;;;4.43;100.00;101624.38;5244553;28;20432;-71
2023/01/30 01:37:18;;;;;;;32.50;28.07;;;;;;;4.48;100.00;101622.78;5245390;28;20088;-71
2023/01/30 01:42:50;;;;;;;34.97;27.48;;;;;;;4.51;100.00;101628.03;5260144;28;20054;-72
2023/01/30 01:45:23;;;;;;;31.60;25.87;;;;;;;4.53;100.00;101625.47;5244823;28;20037;-72
2023/01/30 01:48:04;;;;;;;33.80;27.15;;;;;;;4.56;100.00;101618.69;5244352;28;20851;-71
2023/01/30 01:50:41;;;;;;;37.13;28.10;;;;;;;4.60;100.00;101600.69;5245000;28;20106;-71
2023/01/30 01:53:16;;;;;;;35.63;27.52;;;;;;;4.60;100.00;101598.97;5243997;28;20072;-72
2023/01/30 01:55:50;;;;;;;32.03;27.05;;;;;;;4.64;100.00;101587.88;5244372;28;20071;-71
2023/01/30 01:58:27;;;;;;;29.70;26.35;;;;;;;4.69;100.00;101575.94;5244576;28;20440;-72
2023/01/30 02:01:00;;;;;;;35.05;26.40;;;;;;;4.75;100.00;101577.81;5244614;28;20454;-71
2023/01/30 02:03:36;;;;;;;31.60;27.65;;;;;;;4.79;100.00;101571.00;5243821;28;20527;-72
2023/01/30 02:06:09;;;;;;;33.20;25.67;;;;;;;4.80;100.00;101565.88;5243688;28;20103;-71
2023/01/30 02:08:46;;;;;;;32.03;27.00;;;;;;;4.76;100.00;101571.81;5245003;28;20398;-71
2023/01/30 02:11:41;;;;;;;34.67;27.70;;;;;;;4.77;100.00;101570.13;5243985;28;20515;-72
2023/01/30 02:14:14;;;;;;;38.83;28.10;;;;;;;4.74;100.00;101582.09;5243076;28;20112;-72
2023/01/30 02:16:46;;;;;;;31.08;25.55;;;;;;;4.75;100.00;101570.94;5244905;28;20460;-72
2023/01/30 02:19:30;;;;;;;33.60;27.93;;;;;;;4.82;100.00;101564.19;5248374;28;20030;-72
2023/01/30 02:22:38;;;;;;;38.88;27.63;;;;;;;4.82;100.00;101558.16;5257839;28;20433;-71
2023/01/30 02:25:17;;;;;;;34.50;25.48;;;;;;;4.77;100.00;101539.97;5256361;28;20116;-70
2023/01/30 02:28:19;;;;;;;35.10;24.73;;;;;;;4.78;100.00;101546.00;5244376;28;20040;-71
2023/01/30 02:31:22;;;;;;;32.95;26.65;;;;;;;4.74;100.00;101534.75;5244616;28;20021;-70
2023/01/30 02:34:05;;;;;;;34.88;26.55;;;;;;;4.75;100.00;101528.75;5244029;28;20068;-70
2023/01/30 02:36:39;;;;;;;36.67;26.92;;;;;;;4.77;100.00;101532.22;5243485;28;20029;-72
2023/01/30 02:39:30;;;;;;;33.30;27.73;;;;;;;4.74;100.00;101525.28;5244023;28;20485;-71
2023/01/30 02:42:37;;;;;;;33.38;27.60;;;;;;;4.76;100.00;101538.22;5244439;28;20050;-71
2023/01/30 02:45:11;;;;;;;35.55;29.30;;;;;;;4.82;100.00;101538.38;5243457;28;20048;-71
2023/01/30 02:47:59;;;;;;;44.05;29.70;;;;;;;4.74;100.00;101540.78;5243366;28;20029;-71
2023/01/30 02:50:39;;;;;;;37.53;29.13;;;;;;;4.73;100.00;101532.97;5243296;28;20029;-72
2023/01/30 02:53:11;;;;;;;36.90;26.85;;;;;;;4.75;100.00;101529.63;5243747;28;20030;-72
2023/01/30 02:55:42;;;;;;;38.30;30.37;;;;;;;4.80;100.00;101531.41;5243446;28;20075;-72
2023/01/30 02:58:18;;;;;;;37.70;31.10;;;;;;;4.77;100.00;101527.06;5243563;28;20029;-72
2023/01/30 03:01:02;;;;;;;35.67;31.73;;;;;;;4.75;100.00;101539.06;5243951;28;20030;-72
2023/01/30 03:03:41;;;;;;;36.22;29.50;;;;;;;4.78;100.00;101525.34;5242263;28;20084;-72
2023/01/30 03:06:47;;;;;;;43.05;32.80;;;;;;;4.78;100.00;101517.59;5242893;28;20030;-71
2023/01/30 03:09:31;;;;;;;38.33;28.10;;;;;;;4.71;100.00;101511.41;5242591;28;20045;-71
2023/01/30 03:12:09;;;;;;;38.78;31.00;;;;;;;4.70;100.00;101507.09;5242727;28;20041;-72
2023/01/30 03:15:04;;;;;;;42.35;31.15;;;;;;;4.70;100.00;101510.56;5243244;28;20091;-72
2023/01/30 03:17:40;;;;;;;37.90;32.05;;;;;;;4.69;100.00;101502.78;5242708;28;20499;-72
2023/01/30 03:20:15;;;;;;;43.95;31.95;;;;;;;4.66;100.00;101508.72;5242975;28;20033;-72
2023/01/30 03:22:46;;;;;;;39.30;31.77;;;;;;;4.66;100.00;101500.13;5242911;28;20037;-72
2023/01/30 03:25:25;;;;;;;44.77;34.13;;;;;;;4.58;100.00;101494.78;5242940;28;20519;-72
2023/01/30 03:27:58;;;;;;;41.70;33.38;;;;;;;4.56;100.00;101501.63;5243125;28;20044;-73
2023/01/30 03:30:30;;;;;;;47.40;35.53;;;;;;;4.54;100.00;101496.41;5242447;28;20084;-73
2023/01/30 03:33:01;;;;;;;48.30;36.07;;;;;;;4.52;100.00;101505.84;5243040;28;20061;-73
2023/01/30 03:35:33;;;;;;;49.80;38.27;;;;;;;4.51;100.00;101506.66;5242973;28;20033;-72
2023/01/30 03:38:04;;;;;;;52.93;41.00;;;;;;;4.54;100.00;101509.31;5242036;28;20037;-73
2023/01/30 03:40:36;;;;;;;59.10;41.07;;;;;;;4.49;100.00;101482.53;5242435;28;20053;-73
2023/01/30 03:43:07;;;;;;;56.93;40.63;;;;;;;4.51;100.00;101477.41;5241437;28;20041;-73
2023/01/30 03:45:39;;;;;;;55.07;40.70;;;;;;;4.54;100.00;101485.19;5242568;28;20076;-73
2023/01/30 03:48:10;;;;;;;54.60;40.20;;;;;;;4.51;100.00;101487.72;5241651;28;20033;-73
2023/01/30 03:50:42;;;;;;;49.87;40.30;;;;;;;4.52;100.00;101480.03;5242186;28;20033;-73
2023/01/30 03:53:13;;;;;;;55.87;38.97;;;;;;;4.50;100.00;101481.69;5241232;28;20041;-73
2023/01/30 03:55:45;;;;;;;56.90;39.80;;;;;;;4.51;100.00;101482.56;5242704;28;20488;-73
2023/01/30 03:58:16;;;;;;;56.37;40.20;;;;;;;4.52;100.00;101487.78;5242329;28;20030;-73
2023/01/30 04:00:48;;;;;;;59.80;41.77;;;;;;;4.52;100.00;101480.03;5242106;28;20029;-73
2023/01/30 04:03:19;;;;;;;60.70;43.03;;;;;;;4.54;100.00;101483.50;5242140;28;20036;-73
2023/01/30 04:05:50;;;;;;;60.77;43.03;;;;;;;4.55;100.00;101489.53;5242315;28;20025;-73
2023/01/30 04:08:22;;;;;;;60.07;46.23;;;;;;;4.58;100.00;101489.59;5242126;28;20045;-73
2023/01/30 04:10:53;;;;;;;58.73;45.13;;;;;;;4.61;100.00;101492.25;5242328;28;20501;-72
2023/01/30 04:13:24;;;;;;;64.30;43.47;;;;;;;4.62;100.00;101483.69;5242071;28;20473;-73
2023/01/30 04:16:22;;;;;;;61.13;42.33;;;;;;;4.66;100.00;101485.47;5242225;28;20038;-72
2023/01/30 04:18:53;;;;;;;56.88;41.75;;;;;;;4.72;100.00;101487.34;5241817;28;20104;-72
2023/01/30 04:21:24;;;;;;;59.30;41.97;;;;;;;4.72;100.00;101482.19;5241559;28;20438;-72
2023/01/30 04:23:56;;;;;;;60.83;42.73;;;;;;;4.76;100.00;101476.22;5241724;28;20420;-72
2023/01/30 04:26:27;;;;;;;55.20;40.97;;;;;;;4.78;100.00;101476.28;5241702;28;20026;-72
2023/01/30 04:28:58;;;;;;;52.63;42.00;;;;;;;4.83;100.00;101469.47;5242371;28;20030;-72
2023/01/30 04:31:30;;;;;;;54.67;40.93;;;;;;;4.90;100.00;101472.25;5241786;28;20026;-72
2023/01/30 04:34:01;;;;;;;53.37;39.57;;;;;;;4.91;100.00;101468.84;5241393;28;20029;-72
2023/01/30 04:36:33;;;;;;;49.57;38.60;;;;;;;4.97;100.00;101470.66;5242523;28;20026;-72
2023/01/30 04:39:04;;;;;;;45.37;34.80;;;;;;;5.01;100.00;101474.19;5241194;28;20383;-71
2023/01/30 04:41:35;;;;;;;44.03;35.80;;;;;;;5.00;100.00;101465.56;5242007;28;20536;-72
2023/01/30 04:44:07;;;;;;;44.57;36.80;;;;;;;5.06;100.00;101472.59;5241427;28;20029;-71
2023/01/30 04:46:38;;;;;;;41.73;33.07;;;;;;;5.10;100.00;101472.69;5241830;28;20072;-70
2023/01/30 04:49:10;;;;;;;44.37;34.70;;;;;;;5.10;100.00;101475.25;5242091;28;20113;-71
2023/01/30 04:51:41;;;;;;;47.87;31.40;;;;;;;5.14;100.00;101470.16;5241573;28;20033;-71
2023/01/30 04:54:13;;;;;;;45.07;31.00;;;;;;;5.11;100.00;101471.81;5241288;28;20065;-71
2023/01/30 04:56:44;;;;;;;35.20;29.23;;;;;;;5.22;100.00;101478.94;5240194;28;20079;-71
2023/01/30 04:59:15;;;;;;;37.20;26.90;;;;;;;5.22;100.00;101481.53;5242075;28;20454;-71
2023/01/30 05:01:47;;;;;;;33.57;25.00;;;;;;;5.27;100.00;101488.50;5245196;28;20030;-71
2023/01/30 05:04:18;;;;;;;34.07;23.10;;;;;;;5.31;100.00;101468.75;5245481;28;20135;-72
2023/01/30 05:06:50;;;;;;;34.27;23.50;;;;;;;5.34;100.00;101484.34;5245164;28;20057;-72
2023/01/30 05:09:21;;;;;;;30.90;20.60;;;;;;;5.38;100.00;101483.56;5245754;28;20131;-72
2023/01/30 05:11:52;;;;;;;32.20;19.87;;;;;;;5.40;100.00;101479.28;5245371;28;20033;-71
2023/01/30 05:14:24;;;;;;;27.10;18.03;;;;;;;5.47;100.00;101488.03;5244630;28;20029;-71
2023/01/30 05:16:55;;;;;;;24.97;18.83;;;;;;;5.53;100.00;101490.75;5245036;28;20546;-71
2023/01/30 05:19:26;;;;;;;22.87;16.37;;;;;;;5.51;100.00;101487.25;5245744;28;20041;-71
2023/01/30 05:21:58;;;;;;;25.10;15.07;;;;;;;5.57;100.00;101483.91;5245671;28;20041;-71
2023/01/30 05:24:29;;;;;;;25.43;14.93;;;;;;;5.59;100.00;101479.66;5247203;28;20029;-71
2023/01/30 05:27:01;;;;;;;19.10;14.70;;;;;;;5.61;100.00;101475.38;5249800;28;20358;-71
2023/01/30 05:29:32;;;;;;;37.47;16.40;;;;;;;5.62;100.00;101482.31;5265698;28;20093;-71
2023/01/30 05:32:04;;;;;;;22.93;12.13;;;;;;;5.75;100.00;101471.34;5259920;28;20061;-72
2023/01/30 05:34:35;;;;;;;22.47;11.00;;;;;;;5.77;100.00;101473.94;5246361;28;20083;-72
2023/01/30 05:37:07;;;;;;;28.33;12.30;;;;;;;5.79;100.00;101475.69;5244754;28;20064;-70
2023/01/30 05:39:38;;;;;;;18.43;10.80;;;;;;;5.80;100.00;101485.22;5244162;28;20465;-70
2023/01/30 05:42:09;;;;;;;18.73;10.53;;;;;;;5.78;100.00;101476.56;5245343;28;20050;-72
2023/01/30 05:44:41;;;;;;;21.43;10.37;;;;;;;5.84;100.00;101480.97;5243750;28;20496;-72
2023/01/30 05:47:12;;;;;;;19.33;9.50;;;;;;;5.82;100.00;101470.59;5244997;28;20473;-72
2023/01/30 05:49:43;;;;;;;18.17;9.73;;;;;;;5.87;100.00;101462.91;5244883;28;20076;-73
2023/01/30 05:52:15;;;;;;;17.97;9.43;;;;;;;5.90;100.00;101472.44;5244933;28;20197;-72
2023/01/30 05:54:46;;;;;;;23.10;10.00;;;;;;;5.93;100.00;101470.78;5245034;28;20075;-72
2023/01/30 05:57:17;;;;;;;24.07;8.90;;;;;;;5.95;100.00;101476.84;5244753;28;20045;-72
2023/01/30 05:59:49;;;;;;;20.20;8.00;;;;;;;5.88;100.00;101481.91;5244943;28;20030;-72
2023/01/30 06:02:20;;;;;;;19.67;8.10;;;;;;;5.93;100.00;101485.44;5243289;28;20045;-71
2023/01/30 06:04:51;;;;;;;24.67;9.17;;;;;;;5.93;100.00;101501.84;5243176;28;20112;-72
2023/01/30 06:07:23;;;;;;;22.10;8.23;;;;;;;5.97;100.00;101497.63;5243465;28;20032;-72
2023/01/30 06:09:55;;;;;;;20.00;8.00;;;;;;;5.92;100.00;101505.25;5244965;28;20071;-72
2023/01/30 06:12:26;;;;;;;20.65;8.73;;;;;;;5.92;100.00;101506.97;5243243;28;20053;-72
2023/01/30 06:14:58;;;;;;;18.47;8.20;;;;;;;6.02;100.00;101502.03;5244979;28;20574;-72
2023/01/30 06:17:29;;;;;;;18.47;7.50;;;;;;;6.07;100.00;101496.06;5244356;28;20037;-72
2023/01/30 06:20:01;;;;;;;23.07;6.57;;;;;;;6.16;100.00;101504.84;5243986;28;20038;-72
2023/01/30 06:22:32;;;;;;;16.07;5.40;;;;;;;6.19;100.00;101506.63;5242799;28;20026;-72
2023/01/30 06:25:04;;;;;;;19.50;5.47;;;;;;;6.18;100.00;101510.06;5244067;28;20129;-72
2023/01/30 06:27:35;;;;;;;15.30;6.43;;;;;;;6.17;100.00;101511.78;5244060;28;20499;-72
2023/01/30 06:30:08;;;;;;;18.07;6.00;;;;;;;6.19;100.00;101519.56;5244070;28;20458;-72
2023/01/30 06:32:40;;;;;;;17.48;5.20;;;;;;;6.15;100.00;101530.69;5244495;28;20461;-71
2023/01/30 06:35:11;;;;;;;16.95;5.97;;;;;;;6.08;100.00;101542.66;5242614;28;20037;-71
2023/01/30 06:37:44;;;;;;;18.00;6.83;;;;;;;6.00;100.00;101539.94;5244186;28;20048;-72
2023/01/30 06:40:15;;;;;;;18.30;6.60;;;;;;;6.00;100.00;101555.47;5243649;28;20045;-72
2023/01/30 06:42:48;;;;;;;19.97;7.17;;;;;;;5.98;100.00;101538.19;5243890;28;20029;-72
2023/01/30 06:45:19;;;;;;;13.98;5.28;;;;;;;5.87;100.00;101527.59;5243824;28;20381;-72
2023/01/30 06:47:53;;;;;;;24.37;5.77;;;;;;;5.77;100.00;101541.22;5243323;28;20029;-72
2023/01/30 06:50:26;;;;;;;17.15;4.82;;;;;;;5.69;100.00;101555.72;5243623;28;20044;-72
2023/01/30 06:53:01;;;;;;;16.52;5.40;;;;;;;5.60;100.00;101552.13;5243638;28;20045;-72
2023/01/30 06:55:34;;;;;;;18.52;5.90;;;;;;;5.55;100.00;101558.03;5243773;28;20036;-72
2023/01/30 06:58:08;;;;;;;22.67;6.18;;;;;;;5.60;100.00;101559.88;5243645;28;20108;-72
2023/01/30 07:00:41;;;;;;;11.93;4.68;;;;;;;5.57;100.00;101540.81;5243315;28;20030;-72
2023/01/30 07:03:15;;;;;;;19.85;5.25;;;;;;;5.54;100.00;101527.81;5244064;28;20108;-73
2023/01/30 07:05:47;;;;;;;18.05;4.97;;;;;;;5.47;100.00;101519.97;5243285;28;20037;-72
2023/01/30 07:08:18;;;;;;;17.07;6.47;;;;;;;5.47;100.00;101524.25;5243488;28;20033;-72
2023/01/30 07:10:50;;;;;;;13.40;4.53;;;;;;;5.47;100.00;101532.88;5243517;28;20049;-73
2023/01/30 07:13:21;;;;;;;16.10;4.30;;;;;;;5.43;100.00;101538.81;5243133;28;20074;-73
2023/01/30 07:15:52;;;;;;;19.43;4.73;;;;;;;5.32;100.00;101539.44;5243130;28;20075;-73
2023/01/30 07:18:24;;;;;;;15.63;4.27;;;;;;;5.32;100.00;101548.06;5243563;28;20484;-72
2023/01/30 07:20:55;;;;;;;17.70;5.00;;;;;;;5.40;100.00;101546.53;5242743;28;20505;-72
2023/01/30 07:23:27;;;;;;;18.50;4.67;;;;;;;5.32;100.00;101544.63;5242757;28;20036;-71
2023/01/30 07:26:01;;;;;;;19.23;5.93;;;;;;;5.34;100.00;101545.53;5243080;28;20029;-72
2023/01/30 07:28:33;;;;;;;18.83;5.57;;;;;;;5.23;100.00;101556.53;5242349;28;20030;-72
2023/01/30 07:31:04;;;;;;;13.00;4.60;;;;;;;5.24;100.00;101553.06;5242641;28;20033;-72
2023/01/30 07:33:36;;;;;;;23.07;4.80;;;;;;;5.23;100.00;101558.22;5242590;28;20026;-70
2023/01/30 07:36:07;;;;;;;23.30;5.73;;;;;;;5.25;100.00;101556.56;5243174;28;20034;-71
2023/01/30 07:38:39;;;;;;;17.30;5.07;;;;;;;5.14;100.00;101577.00;5242290;28;20041;-71
2023/01/30 07:41:10;;;;;;;16.63;5.90;;;;;;;5.12;100.00;101576.09;5242640;28;20050;-71
2023/01/30 07:43:42;;;;;;;14.73;5.17;;;;;;;5.10;100.00;101581.22;5242554;28;20038;-71
2023/01/30 07:46:13;;;;;;;14.93;3.93;;;;;;;5.06;100.00;101574.22;5242741;28;20063;-71
2023/01/30 07:48:44;;;;;;;17.87;4.20;;;;;;;5.04;100.00;101575.91;5241179;28;20045;-71
2023/01/30 07:51:16;;;;;;;18.77;4.53;;;;;;;5.01;100.00;101578.41;5242450;28;20036;-71
2023/01/30 07:53:50;;;;;;;22.60;5.43;;;;;;;5.05;100.00;101582.81;5242700;28;20082;-71
2023/01/30 07:56:22;;;;;;;20.38;5.63;;;;;;;5.04;100.00;101572.44;5242305;28;20026;-71
2023/01/30 07:58:54;;;;;;;18.10;5.20;;;;;;;5.04;100.00;101572.44;5242280;28;20048;-71
2023/01/30 08:01:25;;;;;;;17.35;4.80;;;;;;;4.98;100.00;101583.53;5242142;28;20120;-71
2023/01/30 08:03:57;;;;;;;17.83;4.90;;;;;;;5.03;100.00;101587.06;5242190;28;20553;-71
2023/01/30 08:06:29;;;;;;;19.47;5.50;;;;;;;4.97;100.00;101581.75;5242393;28;20062;-71
2023/01/30 08:09:00;;;;;;;20.77;6.05;;;;;;;5.00;99.41;101584.41;5240877;28;20021;-70
2023/01/30 08:11:32;;;;;;;25.40;6.73;;;;;;;5.00;99.26;101581.84;5242752;28;20164;-72
2023/01/30 08:14:04;;;;;;;22.73;5.37;;;;;;;4.95;99.24;101588.59;5242199;28;20056;-71
2023/01/30 08:16:35;;;;;;;21.53;6.60;;;;;;;4.97;98.45;101597.25;5242183;28;20025;-71
2023/01/30 08:19:07;;;;;;;24.97;6.00;;;;;;;5.06;96.85;101604.38;5240882;28;20026;-71
2023/01/30 08:21:38;;;;;;;20.87;5.87;;;;;;;5.06;96.95;101600.06;5240923;28;20124;-71
2023/01/30 08:24:10;;;;;;;30.47;6.77;;;;;;;5.09;96.04;101600.13;5242446;28;20108;-72
2023/01/30 08:26:41;;;;;;;23.90;5.33;;;;;;;5.15;95.24;101616.63;5241691;28;20033;-71
2023/01/30 08:29:12;;;;;;;25.37;6.23;;;;;;;5.19;94.63;101614.13;5242992;28;20029;-72
2023/01/30 08:31:44;;;;;;;24.40;6.00;;;;;;;5.24;92.96;101625.44;5245785;28;20424;-72
2023/01/30 08:34:15;;;;;;;24.07;5.77;;;;;;;5.29;93.07;101618.66;5249498;28;20385;-71
2023/01/30 08:36:47;;;;;;;17.80;5.60;;;;;;;5.33;92.67;101613.56;5250586;28;20045;-72
2023/01/30 08:39:19;;;;;;;22.17;5.23;;;;;;;5.36;92.57;101616.22;5250245;28;20065;-72
2023/01/30 08:41:50;;;;;;;27.03;6.57;;;;;;;5.37;92.58;101616.25;5249187;28;20319;-72
2023/01/30 08:44:21;;;;;;;23.63;4.80;;;;;;;5.43;92.62;101620.72;5247589;28;20040;-72
2023/01/30 08:46:53;;;;;;;24.83;5.43;;;;;;;5.51;90.76;101623.47;5249105;28;20072;-72
2023/01/30 08:49:24;;;;;;;24.73;5.50;;;;;;;5.57;90.06;101624.47;5248872;28;20075;-72
2023/01/30 08:51:56;;;;;;;23.67;5.70;;;;;;;5.64;89.89;101635.81;5248384;28;20044;-72
2023/01/30 08:54:27;;;;;;;27.23;6.40;;;;;;;5.75;90.92;101631.72;5249247;28;20025;-72
2023/01/30 08:56:58;;;;;;;19.47;5.17;;;;;;;5.78;88.41;101636.06;5248643;28;20041;-72
2023/01/30 08:59:30;;;;;;;21.70;5.13;;;;;;;5.84;88.30;101636.22;5248535;28;20037;-72
2023/01/30 09:02:01;;;;;;;22.03;5.40;;;;;;;5.88;87.30;101645.78;5248465;28;20427;-72
2023/01/30 09:04:33;;;;;;;21.30;4.87;;;;;;;5.96;86.87;101639.09;5248327;28;20377;-72
2023/01/30 09:07:04;;;;;;;16.47;5.00;;;;;;;6.07;87.00;101659.13;5248076;28;20034;-72
2023/01/30 09:09:36;;;;;;;24.37;6.50;;;;;;;6.23;86.66;101657.72;5248206;28;20395;-72
2023/01/30 09:12:07;;;;;;;18.53;4.47;;;;;;;6.29;85.18;101661.28;5248484;28;20180;-72
2023/01/30 09:14:39;;;;;;;20.90;5.20;;;;;;;6.33;84.55;101668.28;5248603;28;20362;-72
2023/01/30 09:17:11;;;;;;;20.20;6.10;;;;;;;6.36;84.54;101664.88;5247637;28;20503;-72
2023/01/30 09:19:42;;;;;;;19.90;5.18;;;;;;;6.39;83.46;101667.50;5247845;28;20057;-72
2023/01/30 09:22:15;;;;;;;19.93;4.97;;;;;;;6.44;84.45;101671.06;5248327;28;20068;-71
2023/01/30 09:24:46;;;;;;;;;;;;;;;6.68;85.16;101677.53;5248671;28;20351;-71
2023/01/30 09:27:17;;;;;;;23.60;5.35;;;;;;;6.86;84.97;101680.44;5246851;28;19956;-71
2023/01/30 09:29:49;;;;;;;19.80;5.87;;;;;;;6.72;81.91;101685.38;5247537;28;20037;-72
2023/01/30 09:32:21;;;;;;;19.48;4.88;;;;;;;6.82;82.57;101678.63;5248197;28;20468;-72
2023/01/30 09:34:52;;;;;;;19.93;5.77;;;;;;;6.86;81.37;101680.44;5248117;28;20033;-72
2023/01/30 09:37:24;;;;;;;18.20;4.97;;;;;;;6.87;79.95;101676.97;5248099;28;20389;-72
2023/01/30 09:39:55;;;;;;;21.23;5.87;;;;;;;6.85;79.92;101696.84;5248179;28;20041;-72
2023/01/30 09:43:01;;;;;;;17.13;4.70;;;;;;;6.89;80.68;101703.81;5247141;28;20156;-72
2023/01/30 09:45:42;;;;;;;23.55;4.78;;;;;;;7.21;80.62;101692.22;5247331;28;20037;-72
2023/01/30 09:48:19;;;;;;;18.77;4.90;;;;;;;7.17;78.67;101693.91;5244559;28;20056;-72
2023/01/30 09:51:21;;;;;;;18.42;4.93;;;;;;;7.10;78.99;101698.13;5244591;28;20446;-72
2023/01/30 09:54:11;;;;;;;24.10;6.40;;;;;;;6.88;79.23;101706.38;5244542;28;20046;-71
2023/01/30 09:56:43;;;;;;;19.85;5.60;;;;;;;6.81;80.38;101709.69;5245164;28;20033;-72
2023/01/30 09:59:24;;;;;;;24.53;5.47;;;;;;;6.82;80.20;101696.78;5245022;28;20468;-72
2023/01/30 10:02:12;;;;;;;20.67;5.45;;;;;;;6.85;79.87;101702.00;5245008;28;20037;-71
2023/01/30 10:04:46;;;;;;;16.73;5.00;;;;;;;6.78;79.82;101707.06;5243576;28;20022;-72
2023/01/30 10:07:48;;;;;;;16.25;5.13;;;;;;;6.86;79.70;101714.13;5244453;28;20025;-72
2023/01/30 10:10:20;;;;;;;20.23;5.00;;;;;;;6.92;79.93;101706.47;5244809;28;20464;-71
2023/01/30 10:13:28;;;;;;;35.37;6.83;;;;;;;6.92;78.68;101715.94;5244440;28;20025;-72
2023/01/30 10:16:20;;;;;;;26.60;5.32;;;;;;;6.92;79.71;101728.91;5244486;28;20099;-72
2023/01/30 10:19:16;;;;;;;22.02;6.05;;;;;;;7.03;79.07;101718.72;5244346;28;20111;-72
2023/01/30 10:22:01;;;;;;;20.83;5.20;;;;;;;7.08;78.79;101715.38;5244281;28;20121;-72
2023/01/30 10:24:51;;;;;;;18.00;5.15;;;;;;;7.05;78.10;101727.41;5245298;28;20078;-73
2023/01/30 10:27:24;;;;;;;22.85;5.47;;;;;;;7.00;77.66;101716.09;5244579;28;20025;-72
2023/01/30 10:30:01;;;;;;;22.95;5.03;;;;;;;7.01;77.73;101746.34;5243849;28;20021;-72
2023/01/30 10:33:08;;;;;;;20.02;5.43;;;;;;;7.02;77.41;101722.16;5243951;28;20026;-72
2023/01/30 10:35:42;;;;;;;17.83;4.40;;;;;;;7.05;76.69;101749.03;5243884;28;20041;-71
2023/01/30 10:38:32;;;;;;;20.95;5.60;;;;;;;7.20;77.33;101732.84;5242598;28;20043;-71
2023/01/30 10:41:28;;;;;;;18.23;4.68;;;;;;;7.35;76.81;101739.13;5243940;28;20120;-71
2023/01/30 10:44:07;;;;;;;21.48;4.80;;;;;;;7.25;75.99;101731.19;5244107;28;20030;-71
2023/01/30 10:47:12;;;;;;;14.50;4.25;;;;;;;7.28;76.06;101745.94;5243961;28;20071;-72
2023/01/30 10:49:48;;;;;;;22.50;6.40;;;;;;;7.14;75.78;101731.88;5242734;28;20033;-72
2023/01/30 10:52:29;;;;;;;15.70;5.05;;;;;;;7.03;76.05;101749.84;5244514;28;20400;-72
2023/01/30 10:55:26;;;;;;;20.45;4.97;;;;;;;6.95;76.77;101754.88;5244150;28;20368;-72
2023/01/30 10:58:18;;;;;;;21.48;4.82;;;;;;;6.88;78.07;101753.03;5243514;28;20083;-71
2023/01/30 11:01:05;;;;;;;17.50;4.97;;;;;;;6.83;77.19;101758.13;5243987;28;20219;-72
2023/01/30 11:03:45;;;;;;;25.90;6.15;;;;;;;6.80;77.51;101750.31;5243461;28;20029;-71
2023/01/30 11:06:25;;;;;;;16.48;4.50;;;;;;;6.81;77.11;101754.66;5243296;28;20100;-71
2023/01/30 11:08:56;;;;;;;21.80;6.35;;;;;;;6.82;77.37;101753.78;5243283;28;20025;-71
2023/01/30 11:11:48;;;;;;;23.40;4.17;;;;;;;6.78;77.30;101761.47;5242998;28;20087;-71
2023/01/30 11:14:19;;;;;;;18.50;4.30;;;;;;;6.78;77.64;101757.19;5243099;28;20037;-71
2023/01/30 11:16:53;;;;;;;17.47;5.07;;;;;;;6.74;77.00;101758.81;5243139;28;20030;-71
2023/01/30 11:19:33;;;;;;;24.00;5.00;;;;;;;6.74;76.29;101760.56;5242963;28;20021;-71
2023/01/30 11:22:05;;;;;;;14.73;3.85;;;;;;;6.74;75.62;101763.16;5242056;28;20025;-71
2023/01/30 11:24:43;;;;;;;20.92;4.53;;;;;;;6.82;75.59;101760.69;5242929;28;20025;-71
2023/01/30 11:27:23;;;;;;;19.15;4.88;;;;;;;6.86;75.68;101746.94;5241722;28;20446;-71
2023/01/30 11:30:12;;;;;;;14.45;3.70;;;;;;;7.02;75.55;101748.97;5245026;28;20025;-72
2023/01/30 11:32:46;;;;;;;18.13;4.13;;;;;;;7.15;74.56;101756.94;5247084;28;20025;-72
2023/01/30 11:35:27;;;;;;;19.25;6.00;;;;;;;7.07;73.63;101759.44;5256966;28;20056;-72
2023/01/30 11:38:27;;;;;;;15.32;4.28;;;;;;;7.08;74.02;101766.34;5247981;28;20048;-72
2023/01/30 11:41:18;;;;;;;19.27;4.95;;;;;;;7.07;73.41;101762.03;5241366;28;20056;-72
2023/01/30 11:43:49;;;;;;;18.35;5.47;;;;;;;7.09;73.94;101762.91;5243745;28;20445;-72
2023/01/30 11:46:21;;;;;;;15.10;4.47;;;;;;;6.99;72.97;101763.59;5241601;28;20037;-72
2023/01/30 11:48:57;;;;;;;22.30;4.80;;;;;;;6.98;73.88;101764.44;5242882;28;20029;-71
2023/01/30 11:51:32;;;;;;;19.15;5.18;;;;;;;6.94;74.57;101763.53;5242584;28;20091;-71
2023/01/30 11:54:07;;;;;;;26.15;5.25;;;;;;;6.90;75.48;101762.56;5241364;28;20060;-70
2023/01/30 11:56:54;;;;;;;20.17;4.88;;;;;;;6.94;74.77;101769.56;5242423;28;20033;-71
2023/01/30 11:59:37;;;;;;;21.00;5.18;;;;;;;7.01;74.56;101774.88;5243091;28;20438;-71